Time;durP1;ratioP1;P1;durP2;ratioP2;P2;SDS_P1;SDS_P2;PMS_P1;PMS_P2;Temp;Humidity;BMP_temperature;BMP_pressure;BME280_temperature;BME280_humidity;BME280_pressure;Samples;Min_cycle;Max_cycle;Signal;HPM_P1;HPM_P2
2022/03/24 00:00:25;;;;;;;50.08;26.88;;;4.90;99.90;;;;;;5052191;28;20112;-90
2022/03/24 00:02:51;;;;;;;52.90;28.45;;;4.80;99.90;;;;;;5053377;28;20116;-90
2022/03/24 00:05:32;;;;;;;53.38;29.90;;;4.80;99.90;;;;;;5053251;28;20095;-90
2022/03/24 00:07:58;;;;;;;51.67;29.33;;;4.80;99.90;;;;;;5053348;28;20116;-90
2022/03/24 00:10:27;;;;;;;45.35;26.92;;;4.70;99.90;;;;;;5053150;28;20060;-89
2022/03/24 00:12:55;;;;;;;45.97;26.95;;;4.70;99.90;;;;;;5034036;28;20048;-89
2022/03/24 00:15:21;;;;;;;45.78;25.80;;;4.70;99.90;;;;;;5053390;28;20025;-90
2022/03/24 00:18:01;;;;;;;51.45;28.48;;;4.70;99.90;;;;;;5035321;28;20115;-90
2022/03/24 00:20:27;;;;;;;51.65;28.23;;;4.60;99.90;;;;;;5034958;28;20029;-90
2022/03/24 00:22:53;;;;;;;47.47;27.55;;;4.60;99.90;;;;;;5053125;28;20461;-89
2022/03/24 00:25:25;;;;;;;60.10;30.45;;;4.50;99.90;;;;;;5034993;28;20087;-89
2022/03/24 00:27:50;;;;;;;51.28;29.00;;;4.50;99.90;;;;;;5052787;28;20108;-89
2022/03/24 00:30:16;;;;;;;49.40;28.67;;;4.50;99.90;;;;;;5052830;28;20056;-89
2022/03/24 00:32:50;;;;;;;48.00;27.13;;;4.40;99.90;;;;;;5052696;28;20025;-89
2022/03/24 00:35:16;;;;;;;61.35;30.40;;;4.40;99.90;;;;;;5052501;28;20080;-89
2022/03/24 00:37:42;;;;;;;49.60;27.33;;;4.40;99.90;;;;;;5052738;28;20029;-89
2022/03/24 00:40:43;;;;;;;49.25;28.33;;;4.40;99.90;;;;;;5052677;28;20529;-89
2022/03/24 00:43:09;;;;;;;56.33;27.55;;;4.30;99.90;;;;;;5034619;28;20032;-89
2022/03/24 00:45:34;;;;;;;55.97;29.73;;;4.40;99.90;;;;;;5052664;28;20021;-88
2022/03/24 00:48:00;;;;;;;49.17;27.83;;;4.40;99.90;;;;;;5054011;28;20052;-89
2022/03/24 00:51:08;;;;;;;51.78;26.95;;;4.30;99.90;;;;;;5034725;28;20033;-88
2022/03/24 00:53:34;;;;;;;48.30;27.73;;;4.30;99.90;;;;;;5052488;28;20385;-89
2022/03/24 00:55:59;;;;;;;47.40;27.05;;;4.30;99.90;;;;;;5034677;28;20021;-89
2022/03/24 00:59:01;;;;;;;47.17;26.67;;;4.30;99.90;;;;;;5052586;28;20084;-89
2022/03/24 01:01:27;;;;;;;48.40;25.73;;;4.30;99.90;;;;;;5060302;28;20091;-89
2022/03/24 01:03:52;;;;;;;53.03;30.08;;;4.30;99.90;;;;;;5054690;28;20682;-88
2022/03/24 01:06:22;;;;;;;50.90;28.35;;;4.30;99.90;;;;;;5071072;28;20429;-89
2022/03/24 01:08:48;;;;;;;56.67;30.05;;;4.20;99.90;;;;;;5072447;28;20086;-89
2022/03/24 01:11:35;;;;;;;51.30;28.08;;;4.10;99.90;;;;;;5054507;28;20480;-89
2022/03/24 01:14:17;;;;;;;59.35;31.17;;;4.00;99.90;;;;;;5054336;28;20024;-90
2022/03/24 01:16:43;;;;;;;48.33;28.73;;;3.90;99.90;;;;;;5072313;28;20465;-89
2022/03/24 01:19:09;;;;;;;52.45;28.40;;;3.90;99.90;;;;;;5072351;28;20021;-88
2022/03/24 01:21:56;;;;;;;47.88;26.65;;;3.80;99.90;;;;;;5072053;28;20025;-88
2022/03/24 01:24:22;;;;;;;51.75;29.50;;;3.90;99.90;;;;;;5057875;28;20017;-90
2022/03/24 01:27:01;;;;;;;53.22;27.77;;;3.80;99.90;;;;;;5076084;28;20025;-90
2022/03/24 01:29:27;;;;;;;44.17;26.48;;;3.80;99.90;;;;;;5058107;28;20492;-90
2022/03/24 01:31:52;;;;;;;51.53;26.85;;;3.80;99.90;;;;;;5076157;28;20110;-90
2022/03/24 01:34:36;;;;;;;43.88;26.08;;;3.80;99.90;;;;;;5074708;28;20024;-90
2022/03/24 01:37:02;;;;;;;54.13;27.88;;;3.80;99.90;;;;;;5060711;28;20036;-89
2022/03/24 01:39:27;;;;;;;47.47;26.73;;;3.80;99.90;;;;;;5055665;28;20381;-89
2022/03/24 01:42:13;;;;;;;43.90;25.25;;;3.80;99.90;;;;;;5055696;28;20029;-89
2022/03/24 01:44:39;;;;;;;54.95;28.35;;;3.80;99.90;;;;;;5055517;28;20021;-89
2022/03/24 01:47:09;;;;;;;50.45;29.05;;;3.70;99.90;;;;;;5037930;28;20385;-89
2022/03/24 01:49:39;;;;;;;53.33;28.65;;;3.70;99.90;;;;;;5053178;28;20052;-89
2022/03/24 01:52:13;;;;;;;56.35;30.90;;;3.70;99.90;;;;;;5075543;28;20024;-89
2022/03/24 01:55:00;;;;;;;52.05;29.40;;;3.60;99.90;;;;;;5037823;28;20029;-89
2022/03/24 01:57:29;;;;;;;55.08;31.10;;;3.50;99.90;;;;;;5071667;28;20147;-88
2022/03/24 02:00:06;;;;;;;51.22;29.20;;;3.50;99.90;;;;;;5057361;28;20021;-88
2022/03/24 02:02:32;;;;;;;49.40;28.13;;;3.50;99.90;;;;;;5057197;28;20025;-89
2022/03/24 02:04:58;;;;;;;54.47;30.63;;;3.50;99.90;;;;;;5074913;28;20156;-88
2022/03/24 02:07:44;;;;;;;56.22;29.75;;;3.50;99.90;;;;;;5074962;28;20020;-88
2022/03/24 02:10:11;;;;;;;;;;;3.40;99.90;;;;;;5075662;28;20156;-88
2022/03/24 02:12:37;;;;;;;43.65;25.65;;;3.40;99.90;;;;;;5056681;28;20327;-88
2022/03/24 02:15:04;;;;;;;43.83;25.60;;;3.40;99.90;;;;;;5075073;28;20032;-89
2022/03/24 02:17:30;;;;;;;44.60;26.92;;;3.40;99.90;;;;;;5075554;28;20028;-88
2022/03/24 02:20:05;;;;;;;48.92;27.15;;;3.40;99.90;;;;;;5077858;28;20028;-88
2022/03/24 02:22:30;;;;;;;48.47;26.85;;;3.50;99.90;;;;;;5057285;28;20024;-89
2022/03/24 02:24:56;;;;;;;53.53;28.42;;;3.50;99.90;;;;;;5056901;28;20023;-89
2022/03/24 02:27:27;;;;;;;50.33;28.00;;;3.40;99.90;;;;;;5075157;28;20104;-89
2022/03/24 02:29:52;;;;;;;47.55;27.13;;;3.40;99.90;;;;;;5074995;28;20551;-90
2022/03/24 02:32:37;;;;;;;52.42;30.23;;;3.40;99.90;;;;;;5075340;28;20115;-89
2022/03/24 02:35:03;;;;;;;48.95;28.42;;;3.40;99.90;;;;;;5094025;28;20085;-89
2022/03/24 02:37:30;;;;;;;55.92;28.33;;;3.30;99.90;;;;;;5089650;28;20033;-89
2022/03/24 02:40:00;;;;;;;49.42;26.67;;;3.30;99.90;;;;;;5056636;28;20557;-89
2022/03/24 02:42:32;;;;;;;53.78;28.73;;;3.20;99.90;;;;;;5056732;28;20020;-89
2022/03/24 02:45:05;;;;;;;49.40;27.08;;;3.20;99.90;;;;;;5074727;28;20024;-89
2022/03/24 02:47:31;;;;;;;53.28;29.00;;;3.20;99.90;;;;;;5056270;28;20029;-89
2022/03/24 02:49:58;;;;;;;54.80;29.48;;;3.20;99.90;;;;;;5058051;28;20040;-89
2022/03/24 02:52:32;;;;;;;51.22;27.33;;;3.10;99.90;;;;;;5037037;28;20031;-88
2022/03/24 02:58:21;;;;;;;50.88;28.17;;;3.10;99.90;;;;;;5054205;28;20086;-88
2022/03/24 03:00:46;;;;;;;51.83;29.58;;;3.20;99.90;;;;;;5054142;28;20021;-88
2022/03/24 03:03:24;;;;;;;55.40;29.58;;;3.10;99.90;;;;;;5054025;28;20028;-89
2022/03/24 03:05:50;;;;;;;49.72;27.65;;;3.10;99.90;;;;;;5036141;28;20028;-89
2022/03/24 03:08:15;;;;;;;54.08;26.42;;;3.10;99.90;;;;;;5036108;28;20025;-89
2022/03/24 03:10:52;;;;;;;48.67;28.10;;;3.10;99.90;;;;;;5052699;28;20032;-88
2022/03/24 03:13:17;;;;;;;46.03;26.98;;;3.10;99.90;;;;;;5053770;28;20136;-88
2022/03/24 03:15:43;;;;;;;52.28;28.85;;;3.10;99.90;;;;;;5036045;28;20111;-88
2022/03/24 03:18:24;;;;;;;51.53;28.45;;;3.10;99.90;;;;;;5035963;28;20032;-88
2022/03/24 03:20:49;;;;;;;56.22;30.65;;;3.00;99.90;;;;;;5053458;28;20029;-88
2022/03/24 03:23:22;;;;;;;54.75;29.30;;;3.00;99.90;;;;;;5053520;28;20044;-88
2022/03/24 03:25:48;;;;;;;55.42;28.58;;;3.00;99.90;;;;;;5053549;28;20096;-88
2022/03/24 03:28:18;;;;;;;53.38;29.13;;;2.90;99.90;;;;;;5035744;28;20458;-88
2022/03/24 03:30:44;;;;;;;53.15;28.20;;;2.90;99.90;;;;;;5053675;28;20021;-90
2022/03/24 03:33:10;;;;;;;51.58;28.95;;;2.90;99.90;;;;;;5035625;28;20115;-88
2022/03/24 03:35:37;;;;;;;52.85;28.27;;;2.90;99.90;;;;;;5035506;28;20048;-89
2022/03/24 03:38:04;;;;;;;47.60;28.35;;;2.90;99.90;;;;;;5053434;28;20032;-89
2022/03/24 03:40:30;;;;;;;52.75;28.80;;;2.90;99.90;;;;;;5053337;28;20113;-89
2022/03/24 03:43:11;;;;;;;53.25;27.40;;;2.90;99.90;;;;;;5053271;28;20385;-89
2022/03/24 03:45:37;;;;;;;52.17;29.40;;;2.90;99.90;;;;;;5053416;28;20021;-88
2022/03/24 03:48:04;;;;;;;52.67;28.88;;;2.90;99.90;;;;;;5052886;28;20437;-89
2022/03/24 03:50:43;;;;;;;59.80;31.73;;;2.90;99.90;;;;;;5035143;28;20036;-89
2022/03/24 03:53:09;;;;;;;57.33;31.95;;;2.80;99.90;;;;;;5042667;28;20043;-88
2022/03/24 03:58:57;;;;;;;64.75;33.63;;;2.80;99.90;;;;;;5073229;28;20434;-89
2022/03/24 04:01:30;;;;;;;58.05;31.40;;;2.70;99.90;;;;;;5055268;28;20025;-89
2022/03/24 04:03:57;;;;;;;60.63;32.13;;;2.70;99.90;;;;;;5053763;28;20024;-89
2022/03/24 04:07:10;;;;;;;58.45;29.83;;;2.70;99.90;;;;;;5072877;28;20020;-88
2022/03/24 04:09:36;;;;;;;57.17;31.27;;;2.70;99.90;;;;;;5055142;28;20032;-88
2022/03/24 04:12:02;;;;;;;54.10;29.90;;;2.70;99.90;;;;;;5073130;28;20070;-89
2022/03/24 04:14:37;;;;;;;56.72;30.13;;;2.70;99.90;;;;;;5060382;28;20040;-88
2022/03/24 04:17:03;;;;;;;57.72;31.40;;;2.70;99.90;;;;;;5035059;28;20028;-88
2022/03/24 04:19:50;;;;;;;53.13;29.50;;;2.70;99.90;;;;;;5052306;28;20104;-89
2022/03/24 04:22:16;;;;;;;56.65;31.15;;;2.70;99.90;;;;;;5034880;28;20076;-88
2022/03/24 04:24:47;;;;;;;56.92;29.65;;;2.70;99.90;;;;;;5056850;28;20025;-88
2022/03/24 04:27:12;;;;;;;52.15;30.65;;;2.70;99.90;;;;;;5054141;28;20033;-88
2022/03/24 04:29:40;;;;;;;49.28;27.15;;;2.70;99.90;;;;;;5034784;28;20076;-87
2022/03/24 04:32:07;;;;;;;54.85;30.58;;;2.70;99.90;;;;;;5052527;28;20485;-87
2022/03/24 04:34:33;;;;;;;58.75;32.88;;;2.60;99.90;;;;;;5052407;28;20028;-88
2022/03/24 04:37:09;;;;;;;54.10;30.40;;;2.60;99.90;;;;;;5034862;28;20025;-88
2022/03/24 04:39:34;;;;;;;52.25;29.48;;;2.60;99.90;;;;;;5052524;28;20025;-87
2022/03/24 04:42:00;;;;;;;58.50;31.05;;;2.60;99.90;;;;;;5065950;28;20025;-88
2022/03/24 04:44:30;;;;;;;55.63;30.75;;;2.60;99.90;;;;;;5041188;28;20025;-88
2022/03/24 04:46:56;;;;;;;59.92;32.97;;;2.50;99.90;;;;;;5052283;28;20048;-88
2022/03/24 04:49:26;;;;;;;67.03;35.17;;;2.50;99.90;;;;;;5072954;28;20048;-87
2022/03/24 04:51:53;;;;;;;60.13;31.17;;;2.50;99.90;;;;;;5092606;28;20028;-88
2022/03/24 04:54:19;;;;;;;64.75;33.33;;;2.40;99.90;;;;;;5080540;28;20404;-88
2022/03/24 04:57:19;;;;;;;57.53;31.00;;;2.40;99.90;;;;;;5072975;28;20028;-87
2022/03/24 04:59:45;;;;;;;57.58;30.40;;;2.40;99.90;;;;;;5078795;28;20039;-88
2022/03/24 05:02:15;;;;;;;54.47;29.73;;;2.40;99.90;;;;;;5096704;28;20020;-88
2022/03/24 05:04:44;;;;;;;52.67;27.73;;;2.50;99.90;;;;;;5062285;28;20492;-88
2022/03/24 05:07:10;;;;;;;52.13;29.35;;;2.50;99.90;;;;;;5077804;28;20101;-89
2022/03/24 05:09:42;;;;;;;49.63;28.95;;;2.50;99.90;;;;;;5096518;28;20024;-89
2022/03/24 05:12:07;;;;;;;55.78;29.02;;;2.50;99.90;;;;;;5067648;28;20028;-88
2022/03/24 05:14:40;;;;;;;50.45;27.65;;;2.50;99.90;;;;;;5074800;28;20024;-88
2022/03/24 05:17:06;;;;;;;52.40;27.55;;;2.50;99.90;;;;;;5058091;28;20025;-88
2022/03/24 05:19:36;;;;;;;55.03;30.23;;;2.50;99.90;;;;;;5057775;28;20034;-91
2022/03/24 05:22:03;;;;;;;57.88;30.75;;;2.60;99.90;;;;;;5075480;28;20016;-88
2022/03/24 05:24:28;;;;;;;54.92;31.33;;;2.40;99.90;;;;;;5055080;28;20039;-89
2022/03/24 05:27:02;;;;;;;61.63;32.22;;;2.40;99.90;;;;;;5075734;28;20030;-88
2022/03/24 05:29:28;;;;;;;55.63;30.55;;;2.40;99.90;;;;;;5075866;28;20027;-89
2022/03/24 05:31:54;;;;;;;57.28;28.88;;;2.40;99.90;;;;;;5073737;28;20020;-88
2022/03/24 05:34:19;;;;;;;50.20;29.23;;;2.40;99.90;;;;;;5075000;28;20034;-89
2022/03/24 05:36:48;;;;;;;75.30;36.22;;;2.40;99.90;;;;;;5054181;28;20059;-89
2022/03/24 05:39:13;;;;;;;75.97;37.17;;;2.40;99.90;;;;;;5054633;28;20372;-89
2022/03/24 05:41:49;;;;;;;70.00;35.17;;;2.40;99.90;;;;;;5075547;28;20028;-88
2022/03/24 05:44:15;;;;;;;72.05;35.67;;;2.40;99.90;;;;;;5075340;28;20016;-88
2022/03/24 05:46:52;;;;;;;69.85;35.78;;;2.30;99.90;;;;;;5057377;28;20100;-89
2022/03/24 05:49:19;;;;;;;64.38;33.42;;;2.40;99.90;;;;;;5073843;28;20032;-89
2022/03/24 05:51:45;;;;;;;62.10;31.95;;;2.40;99.90;;;;;;5075382;28;20112;-89
2022/03/24 05:54:13;;;;;;;61.42;32.65;;;2.50;99.90;;;;;;5075190;28;20040;-87
2022/03/24 05:56:39;;;;;;;59.20;32.47;;;2.50;99.90;;;;;;5074153;28;20074;-89
2022/03/24 05:59:05;;;;;;;58.00;32.92;;;2.60;99.90;;;;;;5075398;28;20362;-89
2022/03/24 06:01:31;;;;;;;57.47;30.42;;;2.60;99.90;;;;;;5075247;28;20031;-89
2022/03/24 06:03:59;;;;;;;52.30;29.80;;;2.70;99.90;;;;;;5074837;28;20021;-89
2022/03/24 06:06:26;;;;;;;51.38;29.48;;;2.80;99.90;;;;;;5057419;28;20112;-90
2022/03/24 06:09:07;;;;;;;51.40;28.27;;;2.80;99.90;;;;;;5074269;28;20031;-90
2022/03/24 06:11:35;;;;;;;53.25;28.58;;;2.90;99.90;;;;;;5078287;28;20017;-90
2022/03/24 06:14:20;;;;;;;61.50;32.72;;;3.00;99.90;;;;;;5089079;28;20020;-90
2022/03/24 06:16:46;;;;;;;50.28;29.42;;;3.00;99.90;;;;;;5075198;28;20016;-90
2022/03/24 06:19:21;;;;;;;58.38;31.70;;;3.10;99.90;;;;;;5057931;28;20214;-89
2022/03/24 06:21:48;;;;;;;54.55;32.65;;;3.20;99.90;;;;;;5056875;28;20052;-89
2022/03/24 06:24:15;;;;;;;71.22;36.00;;;3.20;99.90;;;;;;5056428;28;20078;-88
2022/03/24 06:26:41;;;;;;;58.17;34.70;;;3.30;99.90;;;;;;5074804;28;20029;-88
2022/03/24 06:29:13;;;;;;;59.10;33.03;;;3.50;99.90;;;;;;5074220;28;20153;-88
2022/03/24 06:31:39;;;;;;;59.78;35.20;;;3.50;99.90;;;;;;5076866;28;20514;-89
2022/03/24 06:34:11;;;;;;;59.80;32.47;;;3.60;99.90;;;;;;5094487;28;20510;-88
2022/03/24 06:36:37;;;;;;;53.20;31.75;;;3.70;99.90;;;;;;5094802;28;20484;-88
2022/03/24 06:39:06;;;;;;;57.90;31.45;;;3.80;99.90;;;;;;5076953;28;20035;-88
2022/03/24 06:42:02;;;;;;;52.03;30.35;;;3.90;99.90;;;;;;5094623;28;20031;-88
2022/03/24 06:44:28;;;;;;;48.75;27.98;;;4.00;99.90;;;;;;5094738;28;20048;-88
2022/03/24 06:47:00;;;;;;;51.28;28.80;;;4.10;99.90;;;;;;5094333;28;20047;-89
2022/03/24 06:49:32;;;;;;;58.40;31.10;;;4.20;99.90;;;;;;5075951;28;20111;-88
2022/03/24 06:51:57;;;;;;;66.78;35.65;;;4.30;99.90;;;;;;5094558;28;20020;-88
2022/03/24 06:54:26;;;;;;;72.28;38.90;;;4.40;99.90;;;;;;5076295;28;20058;-88
2022/03/24 06:56:51;;;;;;;74.25;39.35;;;4.40;99.90;;;;;;5094341;28;20061;-88
2022/03/24 06:59:18;;;;;;;85.35;40.70;;;4.50;99.90;;;;;;5094326;28;20020;-88
2022/03/24 07:01:43;;;;;;;79.15;40.83;;;4.60;99.90;;;;;;5094161;28;20027;-88
2022/03/24 07:04:23;;;;;;;77.32;39.35;;;4.70;99.90;;;;;;5093963;28;20372;-88
2022/03/24 07:06:49;;;;;;;77.13;42.22;;;4.80;99.90;;;;;;5093997;28;20065;-88
2022/03/24 07:09:19;;;;;;;73.35;38.10;;;4.90;99.90;;;;;;5092855;28;20024;-88
2022/03/24 07:11:45;;;;;;;66.63;37.30;;;5.10;99.90;;;;;;5075814;28;20031;-88
2022/03/24 07:14:12;;;;;;;65.22;34.58;;;5.20;99.90;;;;;;5093925;28;20016;-87
2022/03/24 07:16:38;;;;;;;60.47;33.33;;;5.30;99.90;;;;;;5094018;28;20020;-88
2022/03/24 07:19:15;;;;;;;65.20;35.47;;;5.40;99.90;;;;;;5075519;28;20147;-88
2022/03/24 07:21:41;;;;;;;70.88;34.95;;;5.50;99.90;;;;;;5093662;28;20103;-88
2022/03/24 07:24:11;;;;;;;70.15;34.45;;;5.60;99.90;;;;;;5093762;28;20032;-88
2022/03/24 07:26:36;;;;;;;61.85;33.05;;;5.70;99.90;;;;;;5075624;28;20376;-88
2022/03/24 07:29:02;;;;;;;69.07;34.58;;;5.80;99.90;;;;;;5093691;28;20028;-88
2022/03/24 07:31:28;;;;;;;62.35;32.63;;;5.90;99.90;;;;;;5093747;28;20411;-87
2022/03/24 07:34:30;;;;;;;65.28;33.65;;;6.00;99.90;;;;;;5093288;28;20020;-87
2022/03/24 07:36:56;;;;;;;63.65;33.55;;;6.10;99.90;;;;;;5093573;28;20490;-88
2022/03/24 07:39:35;;;;;;;69.00;34.78;;;6.20;99.90;;;;;;5093552;28;20048;-88
2022/03/24 07:42:00;;;;;;;71.97;34.97;;;6.30;99.90;;;;;;5093572;28;20016;-88
2022/03/24 07:44:26;;;;;;;71.00;35.58;;;6.40;99.90;;;;;;5093429;28;20046;-88
2022/03/24 07:46:52;;;;;;;66.25;35.50;;;6.50;99.90;;;;;;5093260;28;20024;-88
2022/03/24 07:49:22;;;;;;;62.20;33.55;;;6.50;99.90;;;;;;5092372;28;20022;-88
2022/03/24 07:51:49;;;;;;;63.40;35.00;;;6.50;99.90;;;;;;5091983;28;20020;-88
2022/03/24 07:54:15;;;;;;;63.47;34.00;;;6.60;99.90;;;;;;5093111;28;20421;-88
2022/03/24 07:56:42;;;;;;;67.78;34.03;;;6.60;99.90;;;;;;5093353;28;20375;-88
2022/03/24 07:59:09;;;;;;;76.03;36.55;;;6.60;99.90;;;;;;5093237;28;20044;-88
2022/03/24 08:01:36;;;;;;;67.43;36.40;;;6.70;99.90;;;;;;5075148;28;20106;-88
2022/03/24 08:04:28;;;;;;;74.47;37.38;;;6.70;99.90;;;;;;5074659;28;20081;-88
2022/03/24 08:06:54;;;;;;;64.45;34.33;;;6.80;99.90;;;;;;5074844;28;20024;-88
2022/03/24 08:09:20;;;;;;;70.40;35.53;;;6.80;99.90;;;;;;5075076;28;20081;-88
2022/03/24 08:11:48;;;;;;;67.07;34.28;;;6.80;99.90;;;;;;5091727;28;20027;-88
2022/03/24 08:14:27;;;;;;;60.85;35.40;;;6.90;99.90;;;;;;5093336;28;20016;-88
2022/03/24 08:16:53;;;;;;;63.67;35.42;;;7.00;99.90;;;;;;5092906;28;20400;-88
2022/03/24 08:19:24;;;;;;;64.60;35.20;;;7.00;99.90;;;;;;5092774;28;20020;-88
2022/03/24 08:21:50;;;;;;;73.32;37.20;;;7.10;99.90;;;;;;5075156;28;20016;-88
2022/03/24 08:24:18;;;;;;;79.25;36.30;;;7.10;99.90;;;;;;5092800;28;20020;-87
2022/03/24 08:26:43;;;;;;;78.55;35.08;;;7.10;99.90;;;;;;5091761;28;20498;-88
2022/03/24 08:29:15;;;;;;;63.83;34.65;;;7.10;99.90;;;;;;5092775;28;20024;-86
2022/03/24 08:31:41;;;;;;;82.25;36.05;;;7.20;99.90;;;;;;5092918;28;20016;-85
2022/03/24 08:34:09;;;;;;;68.43;34.22;;;7.20;99.90;;;;;;5073890;28;20034;-86
2022/03/24 08:36:35;;;;;;;69.90;34.92;;;7.20;99.90;;;;;;5074506;28;20028;-86
2022/03/24 08:39:03;;;;;;;72.28;35.38;;;7.30;99.90;;;;;;5092750;28;20024;-86
2022/03/24 08:41:29;;;;;;;76.97;38.63;;;7.40;99.90;;;;;;5092596;28;20535;-86
2022/03/24 08:44:14;;;;;;;73.70;36.35;;;7.40;99.90;;;;;;5074382;28;20157;-85
2022/03/24 08:46:39;;;;;;;64.15;35.58;;;7.50;99.90;;;;;;5092541;28;20031;-85
2022/03/24 08:49:08;;;;;;;70.05;34.80;;;7.50;99.90;;;;;;5092222;28;20028;-86
2022/03/24 08:51:34;;;;;;;64.75;34.72;;;7.60;99.90;;;;;;5074223;28;20083;-85
2022/03/24 08:54:12;;;;;;;72.53;35.80;;;7.70;99.90;;;;;;5092493;28;20384;-86
2022/03/24 08:56:37;;;;;;;65.22;35.30;;;7.70;99.90;;;;;;5074739;28;20028;-85
2022/03/24 08:59:04;;;;;;;65.85;35.08;;;7.80;99.90;;;;;;5074457;28;20077;-85
2022/03/24 09:01:30;;;;;;;73.32;36.00;;;7.90;99.90;;;;;;5092445;28;20357;-86
2022/03/24 09:04:11;;;;;;;67.55;34.45;;;7.90;99.90;;;;;;5090895;28;20031;-86
2022/03/24 09:06:37;;;;;;;67.65;34.67;;;7.90;99.90;;;;;;5092452;28;20507;-85
2022/03/24 09:09:10;;;;;;;74.90;34.22;;;8.10;99.90;;;;;;5091086;28;20560;-86
2022/03/24 09:11:35;;;;;;;66.97;34.58;;;8.10;99.90;;;;;;5092370;28;20485;-85
2022/03/24 09:14:07;;;;;;;78.72;35.72;;;8.20;99.90;;;;;;5074135;28;20107;-85
2022/03/24 09:16:33;;;;;;;71.35;37.22;;;8.30;99.90;;;;;;5092194;28;20020;-86
2022/03/24 09:19:01;;;;;;;65.88;33.38;;;8.30;99.90;;;;;;5092018;28;20400;-85
2022/03/24 09:21:27;;;;;;;64.40;36.85;;;8.30;99.90;;;;;;5090947;28;20020;-86
2022/03/24 09:23:54;;;;;;;75.22;37.63;;;8.40;99.90;;;;;;5092108;28;20545;-85
2022/03/24 09:26:20;;;;;;;67.10;36.08;;;8.50;99.90;;;;;;5081865;28;20021;-85
2022/03/24 09:29:10;;;;;;;70.10;34.38;;;8.50;99.90;;;;;;5072011;28;20025;-85
2022/03/24 09:31:36;;;;;;;60.88;31.60;;;8.60;99.90;;;;;;5082441;28;20032;-85
2022/03/24 09:34:03;;;;;;;59.38;34.42;;;8.70;99.90;;;;;;5069881;28;20397;-85
2022/03/24 09:36:30;;;;;;;74.28;36.65;;;8.70;99.90;;;;;;5071629;28;20021;-85
2022/03/24 09:38:56;;;;;;;67.90;36.13;;;8.80;99.90;;;;;;5071505;28;20043;-85
2022/03/24 09:41:26;;;;;;;78.13;37.17;;;8.90;99.90;;;;;;5071599;28;20024;-85
2022/03/24 09:43:53;;;;;;;72.20;37.03;;;9.00;99.90;;;;;;5072775;28;20377;-85
2022/03/24 09:46:28;;;;;;;68.75;35.78;;;9.10;99.90;;;;;;5075498;28;20464;-85
2022/03/24 09:48:54;;;;;;;77.55;37.35;;;9.20;99.90;;;;;;5089580;28;20502;-85
2022/03/24 09:51:22;;;;;;;66.25;37.15;;;9.20;99.90;;;;;;5093791;28;20040;-85
2022/03/24 09:54:05;;;;;;;69.90;36.95;;;9.20;99.90;;;;;;5075243;28;20372;-86
2022/03/24 09:56:31;;;;;;;68.00;36.55;;;9.30;99.90;;;;;;5075390;28;20268;-85
2022/03/24 09:58:57;;;;;;;71.63;37.67;;;9.40;99.90;;;;;;5057326;28;20033;-85
2022/03/24 10:01:27;;;;;;;69.70;37.75;;;9.40;99.90;;;;;;5057328;28;20038;-85
2022/03/24 10:04:10;;;;;;;68.68;38.40;;;9.50;99.90;;;;;;5074787;28;20767;-84
2022/03/24 10:06:39;;;;;;;74.38;37.53;;;9.60;99.90;;;;;;5074858;28;20033;-85
2022/03/24 10:09:06;;;;;;;71.78;38.70;;;9.60;99.90;;;;;;5062340;28;20030;-85
2022/03/24 10:11:48;;;;;;;68.50;37.90;;;9.70;99.90;;;;;;5088062;28;20021;-85
2022/03/24 10:14:49;;;;;;;81.07;40.53;;;9.80;99.90;;;;;;5074845;28;20028;-84
2022/03/24 10:17:16;;;;;;;84.15;40.58;;;9.90;99.90;;;;;;5073430;28;20111;-84
2022/03/24 10:19:59;;;;;;;71.63;39.75;;;9.90;99.90;;;;;;5073360;28;20063;-84
2022/03/24 10:22:25;;;;;;;72.07;37.42;;;10.00;99.90;;;;;;5074557;28;20033;-85
2022/03/24 10:24:56;;;;;;;75.85;40.15;;;10.10;99.90;;;;;;5074666;28;20032;-84
2022/03/24 10:27:27;;;;;;;75.50;40.72;;;10.20;99.90;;;;;;5074689;28;20036;-85
2022/03/24 10:30:10;;;;;;;75.22;40.33;;;10.30;99.90;;;;;;5074582;28;20099;-84
2022/03/24 10:32:36;;;;;;;72.95;39.25;;;10.40;99.90;;;;;;5074635;28;20073;-84
2022/03/24 10:35:13;;;;;;;75.70;38.88;;;10.50;99.90;;;;;;5074343;28;20502;-84
2022/03/24 10:37:53;;;;;;;67.95;37.97;;;10.60;99.90;;;;;;5074542;28;20227;-84
2022/03/24 10:40:19;;;;;;;69.72;37.00;;;10.60;99.90;;;;;;5074415;28;20028;-85
2022/03/24 10:42:57;;;;;;;68.40;36.90;;;10.70;99.90;;;;;;5073232;28;20032;-84
2022/03/24 10:45:23;;;;;;;65.82;36.92;;;10.80;99.90;;;;;;5073169;28;20541;-85
2022/03/24 10:47:51;;;;;;;75.07;37.97;;;10.90;99.90;;;;;;5072415;28;20028;-85
2022/03/24 10:50:44;;;;;;;77.80;37.97;;;10.90;99.90;;;;;;5068973;28;20488;-84
2022/03/24 10:53:20;;;;;;;80.97;37.80;;;11.00;99.90;;;;;;5057240;28;20469;-84
2022/03/24 10:55:51;;;;;;;74.38;39.47;;;11.00;99.90;;;;;;5053538;28;20025;-84
2022/03/24 10:58:24;;;;;;;89.88;40.75;;;11.10;99.90;;;;;;5073781;28;20028;-84
2022/03/24 11:00:52;;;;;;;73.35;38.03;;;11.20;99.90;;;;;;5055877;28;20051;-84
2022/03/24 11:03:23;;;;;;;69.90;37.65;;;11.20;99.90;;;;;;5072269;28;20062;-83
2022/03/24 11:05:49;;;;;;;82.53;39.40;;;11.30;99.90;;;;;;5073985;28;20485;-84
2022/03/24 11:08:19;;;;;;;75.40;39.30;;;11.30;99.90;;;;;;5072126;28;20051;-83
2022/03/24 11:10:47;;;;;;;70.82;38.05;;;11.40;99.90;;;;;;5053844;28;20052;-83
2022/03/24 11:13:40;;;;;;;71.68;37.00;;;11.50;99.90;;;;;;5053646;28;20072;-83
2022/03/24 11:16:08;;;;;;;68.80;38.50;;;11.50;99.80;;;;;;5042891;28;20033;-83
2022/03/24 11:18:34;;;;;;;74.22;38.08;;;11.60;99.60;;;;;;5053219;28;20036;-83
2022/03/24 11:21:25;;;;;;;70.35;37.97;;;11.60;97.60;;;;;;5053448;28;20028;-83
2022/03/24 11:23:54;;;;;;;73.18;36.17;;;11.70;95.50;;;;;;5062327;28;20033;-82
2022/03/24 11:26:22;;;;;;;64.07;34.90;;;11.80;95.00;;;;;;5063941;28;20029;-83
2022/03/24 11:28:56;;;;;;;70.10;34.22;;;11.90;93.60;;;;;;5053453;28;20112;-88
2022/03/24 11:31:28;;;;;;;67.13;35.67;;;11.90;90.50;;;;;;5035641;28;20021;-88
2022/03/24 11:34:13;;;;;;;74.32;35.95;;;12.00;90.60;;;;;;5055057;28;20031;-89
2022/03/24 11:36:40;;;;;;;66.30;35.30;;;12.10;87.50;;;;;;5073300;28;20013;-90
2022/03/24 11:39:12;;;;;;;72.93;35.90;;;12.10;88.10;;;;;;5073299;28;20274;-89
2022/03/24 11:41:54;;;;;;;60.35;33.22;;;12.30;87.30;;;;;;5055184;28;20032;-87
2022/03/24 11:44:38;;;;;;;70.30;36.20;;;12.30;79.70;;;;;;5055214;28;20162;-89
2022/03/24 11:47:25;;;;;;;71.97;37.67;;;12.40;81.20;;;;;;5073012;28;20025;-89
2022/03/24 11:50:09;;;;;;;;;;;12.40;81.10;;;;;;5073236;28;20097;-89
2022/03/24 11:52:34;;;;;;;75.68;36.03;;;12.50;84.40;;;;;;5071635;28;19987;-88
2022/03/24 11:55:13;;;;;;;69.30;37.60;;;12.50;87.10;;;;;;5071898;28;20040;-89
2022/03/24 11:57:39;;;;;;;69.78;35.67;;;12.60;84.80;;;;;;5073101;28;20017;-89
2022/03/24 12:00:36;;;;;;;73.07;37.10;;;12.70;85.10;;;;;;5072850;28;20040;-89
2022/03/24 12:03:02;;;;;;;63.13;33.47;;;12.80;82.70;;;;;;5072433;28;20070;-89
2022/03/24 12:05:57;;;;;;;59.40;34.03;;;12.90;76.60;;;;;;5072990;28;20024;-89
2022/03/24 12:08:49;;;;;;;67.63;34.63;;;13.00;68.00;;;;;;5065422;28;20085;-89
2022/03/24 12:11:36;;;;;;;72.30;34.22;;;13.10;71.10;;;;;;5071444;28;20070;-89
2022/03/24 12:14:45;;;;;;;68.72;35.05;;;13.10;76.70;;;;;;5038131;28;20104;-88
2022/03/24 12:17:34;;;;;;;73.75;33.47;;;13.20;72.90;;;;;;5065503;28;20503;-90
2022/03/24 12:20:01;;;;;;;81.78;32.17;;;13.30;64.50;;;;;;5066614;28;20027;-90
2022/03/24 12:22:32;;;;;;;63.00;31.60;;;13.30;62.50;;;;;;5071436;28;20027;-90
2022/03/24 12:25:01;;;;;;;65.15;33.50;;;13.40;59.50;;;;;;5072910;28;20024;-89
2022/03/24 12:27:59;;;;;;;53.40;30.40;;;13.40;58.80;;;;;;5072850;28;20476;-90
2022/03/24 12:30:26;;;;;;;71.93;35.97;;;13.40;56.80;;;;;;5054839;28;20078;-90
2022/03/24 12:33:31;;;;;;;66.18;32.28;;;13.50;58.30;;;;;;5072376;28;20024;-90
2022/03/24 12:35:57;;;;;;;68.57;34.50;;;13.50;61.90;;;;;;5054838;28;20108;-90
2022/03/24 12:38:34;;;;;;;63.53;33.40;;;13.50;59.60;;;;;;5072780;28;20480;-90
2022/03/24 12:41:06;;;;;;;62.63;31.98;;;13.60;58.40;;;;;;5072808;28;20384;-91
2022/03/24 12:43:49;;;;;;;66.55;32.97;;;13.60;57.70;;;;;;5072783;28;20029;-90
2022/03/24 12:46:26;;;;;;;59.40;33.42;;;13.80;57.20;;;;;;5040454;28;20027;-89
2022/03/24 12:49:00;;;;;;;58.88;33.13;;;13.80;56.30;;;;;;5068679;28;20476;-89
2022/03/24 12:51:29;;;;;;;66.55;35.85;;;13.90;55.50;;;;;;5054267;28;20431;-90
2022/03/24 12:54:03;;;;;;;64.95;34.50;;;14.00;55.30;;;;;;5066935;28;20116;-90
2022/03/24 12:56:32;;;;;;;64.72;36.00;;;14.10;55.70;;;;;;5065329;28;20070;-90
2022/03/24 12:59:05;;;;;;;58.00;33.53;;;14.20;56.70;;;;;;5066062;28;20029;-90
2022/03/24 13:01:31;;;;;;;56.15;33.47;;;14.20;56.10;;;;;;5034558;28;20541;-89
2022/03/24 13:04:06;;;;;;;54.58;32.22;;;14.30;56.00;;;;;;5062350;28;20047;-89